Kihei, HI (96753)

7:07 PM HST on February 07, 2016 (GMT -1000)
Kihei | | Change Station
CLOSE
Current Station
Personal Weather Station
Location: Kihei, HI
Elevation: 23 ft
Nearby Weather Stations
Active Advisory: High Surf Advisory

Elev 23 ft 20.74 °N, 156.46 °W | Updated 49 seconds ago

Scattered Clouds
Scattered Clouds
68.5 °F
Feels Like 68.5 °F
N
1.0
Wind Variable Wind from ESE
Gusts 5.0 mph

Today
High -- | Low -- °F
--% Chance of Precip.
Yesterday
High -- | Low -- °F
Precip. -- in
Pressure 30.04 in
Visibility 10.0 miles
Clouds Few 4800 ft
Scattered Clouds 5500 ft
Dew Point 55 °F
Humidity 62%
Rainfall 0.00 in
Snow Depth Not available.
7:00 AM 6:20 PM
Waning Crescent, 0% visible
METAR PHOG 080454Z 36013G17KT 10SM FEW048 SCT055 21/09 A3002 RMK AO2 SLP170 T02110094 $
Pressure 30.04 in
Visibility 10.0 miles
Clouds Few 4800 ft
Scattered Clouds 5500 ft
Dew Point 55 °F
Humidity 62%
Rainfall 0.00 in
Snow Depth Not available.
7:00 AM 6:20 PM
Waning Crescent, 0% visible
METAR PHOG 080454Z 36013G17KT 10SM FEW048 SCT055 21/09 A3002 RMK AO2 SLP170 T02110094 $

10-Day Weather Forecast

Almanac

Astronomy

Feb. 07, 2016 Rise Set
Actual Time
Civil Twilight
Nautical Twilight
Astronomical Twilight
Moon
Length of Visible Light
Length of Day
Tomorrow will be .
, % of the Moon is Illuminated

Today's Extremes

State Highs State Lows

Community

WunderPhotos

Upload Photos

1,891,382 photos uploaded!

WunderBlog® & News

Nearby

Air Quality

  Air Quality AQ Index Pollutant
Not available.

Snow Depth

Station Depth Elevation

Earthquake Activity

City Distance Mag. Time & Date
Minimum magnitude displayed is 2.5.

Coastal Water Temperatures

Place Temperature

Stations

Nearby Weather Stations

Station Location Temp. Windchill Dew Point Humidity Wind Precip. Elev Updated Type
                   

Watches & Warnings

High Surf Advisory
Issued: 3:50 PM HST Feb. 7, 2016 – National Weather Service

... High surf advisory remains in effect until 6 PM HST Monday...

* surf... along north and west facing shores of Kauai and Niihau
and north facing shores of Oahu Molokai and Maui... 10 to 15
feet.

* Timing... through 6 PM HST Monday.

* Impacts... moderate... expect strong breaking waves... shore
break... and strong longshore and rip currents making swimming
difficult and dangerous.

Precautionary/preparedness actions... beachgoers... swimmers... and
surfers should heed all advice given by ocean safety officials
and exercise caution.